Time;durP1;ratioP1;P1;durP2;ratioP2;P2;SDS_P1;SDS_P2;PMS_P1;PMS_P2;Temp;Humidity;BMP_temperature;BMP_pressure;BME280_temperature;BME280_humidity;BME280_pressure;Samples;Min_cycle;Max_cycle;Signal;HPM_P1;HPM_P2
2020/12/03 00:00:37;;;;;;;32.30;10.40;;;;;;;;;;4995934;28;20050;-61
2020/12/03 00:03:05;;;;;;;29.77;10.73;;;;;;;;;;4981645;28;20055;-55
2020/12/03 00:05:33;;;;;;;29.77;10.85;;;;;;;;;;4980001;28;20050;-56
2020/12/03 00:07:59;;;;;;;25.42;10.18;;;;;;;;;;4981042;28;20050;-60
2020/12/03 00:10:27;;;;;;;28.50;10.30;;;;;;;;;;4994168;28;20040;-55
2020/12/03 00:13:06;;;;;;;28.88;10.95;;;;;;;;;;4995764;28;20136;-60
2020/12/03 00:15:32;;;;;;;32.60;11.00;;;;;;;;;;4999815;28;20061;-60
2020/12/03 00:17:58;;;;;;;27.75;10.98;;;;;;;;;;4996150;28;20073;-57
2020/12/03 00:20:26;;;;;;;31.83;10.85;;;;;;;;;;5001064;28;20094;-56
2020/12/03 00:22:52;;;;;;;30.33;10.80;;;;;;;;;;4984212;28;20097;-60
2020/12/03 00:25:18;;;;;;;28.63;11.00;;;;;;;;;;4981690;28;20038;-56
2020/12/03 00:27:49;;;;;;;32.60;12.43;;;;;;;;;;4978832;28;20197;-59
2020/12/03 00:30:16;;;;;;;29.02;11.18;;;;;;;;;;4981155;28;20039;-59
2020/12/03 00:32:45;;;;;;;34.45;12.15;;;;;;;;;;4978610;28;20047;-59
2020/12/03 00:35:13;;;;;;;37.17;11.00;;;;;;;;;;4980941;28;20035;-60
2020/12/03 00:37:39;;;;;;;29.55;10.85;;;;;;;;;;4978381;28;20049;-60
2020/12/03 00:40:06;;;;;;;34.53;10.20;;;;;;;;;;4982701;28;20063;-59
2020/12/03 00:42:32;;;;;;;32.25;11.57;;;;;;;;;;5001531;28;20042;-61
2020/12/03 00:44:59;;;;;;;29.90;10.40;;;;;;;;;;5002480;28;20109;-59
2020/12/03 00:47:25;;;;;;;33.28;11.93;;;;;;;;;;4997347;28;20061;-61
2020/12/03 00:49:51;;;;;;;34.03;11.38;;;;;;;;;;5001440;28;20046;-58
2020/12/03 00:52:17;;;;;;;31.40;10.85;;;;;;;;;;5001544;28;20038;-61
2020/12/03 00:54:43;;;;;;;38.20;11.80;;;;;;;;;;4976796;28;20054;-61
2020/12/03 00:57:10;;;;;;;31.15;11.02;;;;;;;;;;4981636;28;20046;-60
2020/12/03 00:59:37;;;;;;;32.53;11.27;;;;;;;;;;4994579;28;20042;-54
2020/12/03 01:02:05;;;;;;;30.75;11.43;;;;;;;;;;5002670;28;20045;-59
2020/12/03 01:04:31;;;;;;;33.65;10.65;;;;;;;;;;5010098;28;20034;-59
2020/12/03 01:06:57;;;;;;;39.42;12.15;;;;;;;;;;4999334;28;20114;-59
2020/12/03 01:09:23;;;;;;;37.13;12.85;;;;;;;;;;4993944;28;20038;-61
2020/12/03 01:11:53;;;;;;;35.78;12.18;;;;;;;;;;4983540;28;20078;-62
2020/12/03 01:14:19;;;;;;;30.48;12.05;;;;;;;;;;4981440;28;20093;-57
2020/12/03 01:16:45;;;;;;;27.65;10.68;;;;;;;;;;5002189;28;20061;-54
2020/12/03 01:19:12;;;;;;;29.88;10.30;;;;;;;;;;4983809;28;20246;-58
2020/12/03 01:21:38;;;;;;;35.40;11.85;;;;;;;;;;4983369;28;20144;-61
2020/12/03 01:24:04;;;;;;;34.60;11.40;;;;;;;;;;4980347;28;20069;-60
2020/12/03 01:26:30;;;;;;;32.92;10.05;;;;;;;;;;4982917;28;20046;-57
2020/12/03 01:28:56;;;;;;;31.15;11.57;;;;;;;;;;4981452;28;20042;-60
2020/12/03 01:31:24;;;;;;;31.75;10.68;;;;;;;;;;4982303;28;20070;-58
2020/12/03 01:33:50;;;;;;;34.95;10.90;;;;;;;;;;4983847;28;20046;-61
2020/12/03 01:36:16;;;;;;;33.90;10.98;;;;;;;;;;4978955;28;20063;-56
2020/12/03 01:38:43;;;;;;;28.98;10.48;;;;;;;;;;4982683;28;20042;-56
2020/12/03 01:41:10;;;;;;;29.00;10.25;;;;;;;;;;4984072;28;20074;-57
2020/12/03 01:43:40;;;;;;;26.80;10.07;;;;;;;;;;5003641;28;20128;-59
2020/12/03 01:46:06;;;;;;;32.95;11.05;;;;;;;;;;4999436;28;20054;-56
2020/12/03 01:48:39;;;;;;;24.17;9.95;;;;;;;;;;5004101;28;20073;-59
2020/12/03 01:51:07;;;;;;;21.80;9.13;;;;;;;;;;4988092;28;20144;-58
2020/12/03 01:53:35;;;;;;;29.15;9.10;;;;;;;;;;4999742;28;20055;-57
2020/12/03 01:56:04;;;;;;;35.40;9.93;;;;;;;;;;4988500;28;20082;-58
2020/12/03 01:58:39;;;;;;;25.67;10.15;;;;;;;;;;5002661;28;20038;-59
2020/12/03 02:01:06;;;;;;;31.42;8.93;;;;;;;;;;4978877;28;20050;-62
2020/12/03 02:03:32;;;;;;;26.65;8.82;;;;;;;;;;5001185;28;20058;-57
2020/12/03 02:05:58;;;;;;;31.25;9.68;;;;;;;;;;5012019;28;20118;-61
2020/12/03 02:08:24;;;;;;;26.15;9.70;;;;;;;;;;5017660;28;20045;-56
2020/12/03 02:10:51;;;;;;;30.00;9.68;;;;;;;;;;5007972;28;20045;-59
2020/12/03 02:13:19;;;;;;;24.73;9.55;;;;;;;;;;5006032;28;20056;-61
2020/12/03 02:15:45;;;;;;;23.63;9.30;;;;;;;;;;5002270;28;20133;-60
2020/12/03 02:18:12;;;;;;;23.70;9.48;;;;;;;;;;4986969;28;20070;-57
2020/12/03 02:20:40;;;;;;;33.13;10.50;;;;;;;;;;4986315;28;20056;-57
2020/12/03 02:23:10;;;;;;;24.98;8.10;;;;;;;;;;5003191;28;20053;-58
2020/12/03 02:25:36;;;;;;;24.02;9.18;;;;;;;;;;5005132;28;20054;-60
2020/12/03 02:28:02;;;;;;;26.38;9.20;;;;;;;;;;5032939;28;20045;-59
2020/12/03 02:30:28;;;;;;;20.95;8.35;;;;;;;;;;5022957;28;20095;-60
2020/12/03 02:32:54;;;;;;;24.10;9.43;;;;;;;;;;5017568;28;20052;-60
2020/12/03 02:35:20;;;;;;;22.77;8.23;;;;;;;;;;5022455;28;20041;-60
2020/12/03 02:37:47;;;;;;;22.23;7.78;;;;;;;;;;5026345;28;20042;-56
2020/12/03 02:40:14;;;;;;;19.25;7.93;;;;;;;;;;5007391;28;20042;-52
2020/12/03 02:42:40;;;;;;;26.58;8.55;;;;;;;;;;5004277;28;20037;-59
2020/12/03 02:45:06;;;;;;;22.80;7.95;;;;;;;;;;5025592;28;20033;-52
2020/12/03 02:47:37;;;;;;;21.67;7.70;;;;;;;;;;4998311;28;20046;-61
2020/12/03 02:50:06;;;;;;;25.80;8.40;;;;;;;;;;4985676;28;20050;-57
2020/12/03 02:52:32;;;;;;;23.23;7.25;;;;;;;;;;4983657;28;20049;-57
2020/12/03 02:55:01;;;;;;;19.80;7.03;;;;;;;;;;5002515;28;20050;-56
2020/12/03 02:57:27;;;;;;;;;;;;;;;;;;4983558;28;20046;-52
2020/12/03 02:59:53;;;;;;;22.17;6.13;;;;;;;;;;4984682;28;19917;-59
2020/12/03 03:02:19;;;;;;;25.65;7.25;;;;;;;;;;5015723;28;20049;-60
2020/12/03 03:04:45;;;;;;;21.38;7.10;;;;;;;;;;5000629;28;20057;-58
2020/12/03 03:07:11;;;;;;;21.48;6.82;;;;;;;;;;5022184;28;20049;-56
2020/12/03 03:09:37;;;;;;;17.35;7.13;;;;;;;;;;4986672;28;20124;-60
2020/12/03 03:12:05;;;;;;;21.55;7.20;;;;;;;;;;4986544;28;20054;-60
2020/12/03 03:14:31;;;;;;;21.45;7.20;;;;;;;;;;5016074;28;20139;-60
2020/12/03 03:16:57;;;;;;;23.17;7.90;;;;;;;;;;5020786;28;20033;-56
2020/12/03 03:19:23;;;;;;;26.58;7.57;;;;;;;;;;5013097;28;20046;-59
2020/12/03 03:21:50;;;;;;;19.92;7.47;;;;;;;;;;4998078;28;20046;-59
2020/12/03 03:24:16;;;;;;;20.25;6.70;;;;;;;;;;5006988;28;20069;-59
2020/12/03 03:26:42;;;;;;;22.55;7.45;;;;;;;;;;5037496;28;20073;-61
2020/12/03 03:29:09;;;;;;;23.10;7.38;;;;;;;;;;5034292;28;20045;-61
2020/12/03 03:31:37;;;;;;;22.67;7.57;;;;;;;;;;5020622;28;20073;-60
2020/12/03 03:34:03;;;;;;;22.90;6.72;;;;;;;;;;5014499;28;20069;-60
2020/12/03 03:36:30;;;;;;;20.35;6.53;;;;;;;;;;5002125;28;20047;-60
2020/12/03 03:38:56;;;;;;;17.63;5.93;;;;;;;;;;5000213;28;20042;-60
2020/12/03 03:41:22;;;;;;;17.50;6.22;;;;;;;;;;5034837;28;20062;-59
2020/12/03 03:43:48;;;;;;;18.27;5.82;;;;;;;;;;5002448;28;20045;-60
2020/12/03 03:46:18;;;;;;;23.13;6.82;;;;;;;;;;5015197;28;20068;-59
2020/12/03 03:48:44;;;;;;;21.13;6.93;;;;;;;;;;5021820;28;20049;-61
2020/12/03 03:51:10;;;;;;;16.08;5.40;;;;;;;;;;5034166;28;20085;-61
2020/12/03 03:53:36;;;;;;;23.65;7.00;;;;;;;;;;5038682;28;20037;-59
2020/12/03 03:56:02;;;;;;;23.13;6.55;;;;;;;;;;4997840;28;20079;-61
2020/12/03 03:58:29;;;;;;;18.70;6.53;;;;;;;;;;5000854;28;20052;-60
2020/12/03 04:00:55;;;;;;;20.27;6.97;;;;;;;;;;5008653;28;20045;-57
2020/12/03 04:03:23;;;;;;;21.10;6.00;;;;;;;;;;5018313;28;20045;-57
2020/12/03 04:05:50;;;;;;;24.53;6.83;;;;;;;;;;5009169;28;20038;-52
2020/12/03 04:08:16;;;;;;;18.45;6.53;;;;;;;;;;5001417;28;20053;-60
2020/12/03 04:10:47;;;;;;;21.45;6.82;;;;;;;;;;5004952;28;20036;-54
2020/12/03 04:13:13;;;;;;;18.52;6.35;;;;;;;;;;5022854;28;20061;-59
2020/12/03 04:15:39;;;;;;;14.85;5.70;;;;;;;;;;5033117;28;20085;-61
2020/12/03 04:18:05;;;;;;;22.67;6.95;;;;;;;;;;5021814;28;20111;-55
2020/12/03 04:20:34;;;;;;;20.50;6.20;;;;;;;;;;5032192;28;20099;-60
2020/12/03 04:23:00;;;;;;;24.58;7.95;;;;;;;;;;5000359;28;20054;-58
2020/12/03 04:25:26;;;;;;;28.83;7.97;;;;;;;;;;5002454;28;20052;-55
2020/12/03 04:27:52;;;;;;;21.55;6.72;;;;;;;;;;4998457;28;20082;-59
2020/12/03 04:30:18;;;;;;;21.50;6.32;;;;;;;;;;5001853;28;20038;-60
2020/12/03 04:32:44;;;;;;;20.90;7.35;;;;;;;;;;5012229;28;20046;-53
2020/12/03 04:35:11;;;;;;;19.48;7.07;;;;;;;;;;5036464;28;20110;-58
2020/12/03 04:37:38;;;;;;;19.55;7.85;;;;;;;;;;5016474;28;20042;-57
2020/12/03 04:40:05;;;;;;;22.48;7.35;;;;;;;;;;5021565;28;20049;-57
2020/12/03 04:42:32;;;;;;;25.08;6.55;;;;;;;;;;5031404;28;20074;-59
2020/12/03 04:45:01;;;;;;;21.00;6.25;;;;;;;;;;5027558;28;20030;-59
2020/12/03 04:47:35;;;;;;;28.23;7.03;;;;;;;;;;5015131;28;20058;-58
2020/12/03 04:50:07;;;;;;;22.25;6.65;;;;;;;;;;5007280;28;20043;-57
2020/12/03 04:52:37;;;;;;;19.92;7.22;;;;;;;;;;5004517;28;20053;-60
2020/12/03 04:55:18;;;;;;;22.42;6.38;;;;;;;;;;5007074;28;20042;-57
2020/12/03 04:57:50;;;;;;;22.83;7.25;;;;;;;;;;5000877;28;20100;-61
2020/12/03 05:00:24;;;;;;;19.90;7.65;;;;;;;;;;5007736;28;20049;-56
2020/12/03 05:02:58;;;;;;;20.80;7.22;;;;;;;;;;5008773;28;20048;-53
2020/12/03 05:05:26;;;;;;;23.70;7.88;;;;;;;;;;5029476;28;20088;-54
2020/12/03 05:07:57;;;;;;;19.10;6.80;;;;;;;;;;5034746;28;20062;-56
2020/12/03 05:10:29;;;;;;;24.67;8.73;;;;;;;;;;5006504;28;20066;-57
2020/12/03 05:12:56;;;;;;;21.15;7.40;;;;;;;;;;5006995;28;20054;-56
2020/12/03 05:15:23;;;;;;;22.83;8.13;;;;;;;;;;5025219;28;20061;-59
2020/12/03 05:17:56;;;;;;;21.58;7.10;;;;;;;;;;5010455;28;20044;-59
2020/12/03 05:20:24;;;;;;;22.55;7.22;;;;;;;;;;5006803;28;20050;-61
2020/12/03 05:22:56;;;;;;;23.23;7.15;;;;;;;;;;5006714;28;20038;-58
2020/12/03 05:25:23;;;;;;;20.65;7.07;;;;;;;;;;5043309;28;20049;-56
2020/12/03 05:27:50;;;;;;;15.75;6.43;;;;;;;;;;5012664;28;20041;-57
2020/12/03 05:30:17;;;;;;;23.90;8.23;;;;;;;;;;5007349;28;20074;-55
2020/12/03 05:32:43;;;;;;;24.13;8.07;;;;;;;;;;4991029;28;20124;-58
2020/12/03 05:35:10;;;;;;;20.73;7.78;;;;;;;;;;5003759;28;20042;-55
2020/12/03 05:37:37;;;;;;;22.00;6.95;;;;;;;;;;5007550;28;20053;-53
2020/12/03 05:40:04;;;;;;;18.27;6.70;;;;;;;;;;5005082;28;20038;-53
2020/12/03 05:42:32;;;;;;;19.70;6.28;;;;;;;;;;5021156;28;20176;-57
2020/12/03 05:44:59;;;;;;;14.88;6.00;;;;;;;;;;5027067;28;20049;-55
2020/12/03 05:47:27;;;;;;;18.02;6.15;;;;;;;;;;5005686;28;20053;-53
2020/12/03 05:49:55;;;;;;;17.67;6.45;;;;;;;;;;4995556;28;20050;-56
2020/12/03 05:52:22;;;;;;;18.13;6.25;;;;;;;;;;4986287;28;20050;-58
2020/12/03 05:55:02;;;;;;;14.82;5.85;;;;;;;;;;4984831;28;20165;-59
2020/12/03 05:57:29;;;;;;;17.23;5.88;;;;;;;;;;5003141;28;20030;-56
2020/12/03 06:00:07;;;;;;;18.48;6.53;;;;;;;;;;4998821;28;20054;-57
2020/12/03 06:02:37;;;;;;;20.80;5.68;;;;;;;;;;5001970;28;20090;-58
2020/12/03 06:05:09;;;;;;;18.73;5.57;;;;;;;;;;4993404;28;20055;-57
2020/12/03 06:07:47;;;;;;;15.20;6.63;;;;;;;;;;4982987;28;20050;-60
2020/12/03 06:10:30;;;;;;;14.32;5.80;;;;;;;;;;4982822;28;20060;-58
2020/12/03 06:13:15;;;;;;;16.35;5.63;;;;;;;;;;5001900;28;20078;-56
2020/12/03 06:15:47;;;;;;;13.80;5.53;;;;;;;;;;4999114;28;20038;-61
2020/12/03 06:18:34;;;;;;;20.60;5.90;;;;;;;;;;5002140;28;20050;-60
2020/12/03 06:21:15;;;;;;;15.30;5.43;;;;;;;;;;4993711;28;20042;-59
2020/12/03 06:23:56;;;;;;;14.43;5.65;;;;;;;;;;4927718;28;20042;-57
2020/12/03 06:26:30;;;;;;;11.32;4.57;;;;;;;;;;4982711;28;20417;-60
2020/12/03 06:29:14;;;;;;;13.77;5.68;;;;;;;;;;5002436;28;20096;-56
2020/12/03 06:31:54;;;;;;;14.15;6.30;;;;;;;;;;4989524;28;20051;-61
2020/12/03 06:34:24;;;;;;;16.88;5.88;;;;;;;;;;4984541;28;20042;-60
2020/12/03 06:36:54;;;;;;;15.48;5.25;;;;;;;;;;4990218;28;20030;-60
2020/12/03 06:39:34;;;;;;;11.52;5.28;;;;;;;;;;5002626;28;20046;-61
2020/12/03 06:42:07;;;;;;;13.65;6.05;;;;;;;;;;4991627;28;20178;-57
2020/12/03 06:44:34;;;;;;;16.95;6.25;;;;;;;;;;4983239;28;20047;-60
2020/12/03 06:47:18;;;;;;;13.02;5.57;;;;;;;;;;4987475;28;20034;-59
2020/12/03 06:49:54;;;;;;;16.73;5.85;;;;;;;;;;4996403;28;20042;-61
2020/12/03 06:52:43;;;;;;;14.55;5.60;;;;;;;;;;5023930;28;20151;-60
2020/12/03 06:55:08;;;;;;;;;;;;;;;;;;5004328;28;20051;-61
2020/12/03 06:57:55;;;;;;;12.32;4.85;;;;;;;;;;4993313;28;19925;-60
2020/12/03 07:00:41;;;;;;;11.88;4.70;;;;;;;;;;4978585;28;20050;-56
2020/12/03 07:03:26;;;;;;;18.40;5.60;;;;;;;;;;4994977;28;20074;-58
2020/12/03 07:06:09;;;;;;;15.73;6.00;;;;;;;;;;5022618;28;20048;-54
2020/12/03 07:08:54;;;;;;;12.85;5.55;;;;;;;;;;5018419;28;20050;-58
2020/12/03 07:11:40;;;;;;;15.38;5.68;;;;;;;;;;4985830;28;20165;-58
2020/12/03 07:14:21;;;;;;;11.38;5.18;;;;;;;;;;5030284;28;20045;-53
2020/12/03 07:17:06;;;;;;;9.18;4.20;;;;;;;;;;5020625;28;20049;-56
2020/12/03 07:19:45;;;;;;;14.18;5.03;;;;;;;;;;5018715;28;20050;-54
2020/12/03 07:22:14;;;;;;;13.25;5.80;;;;;;;;;;5022665;28;20046;-60
2020/12/03 07:24:41;;;;;;;17.33;5.78;;;;;;;;;;5000562;28;20092;-61
2020/12/03 07:27:28;;;;;;;17.63;5.88;;;;;;;;;;4986072;28;20064;-59
2020/12/03 07:29:56;;;;;;;17.52;6.07;;;;;;;;;;4999959;28;20038;-58
2020/12/03 07:32:42;;;;;;;18.50;6.75;;;;;;;;;;5005364;28;20061;-60
2020/12/03 07:35:18;;;;;;;18.55;6.10;;;;;;;;;;4999850;28;20030;-56
2020/12/03 07:37:50;;;;;;;21.63;7.78;;;;;;;;;;4984795;28;20034;-59
2020/12/03 07:40:19;;;;;;;19.63;6.97;;;;;;;;;;4999269;28;20142;-58
2020/12/03 07:42:45;;;;;;;18.45;7.47;;;;;;;;;;5038276;28;20049;-60
2020/12/03 07:45:29;;;;;;;21.33;7.18;;;;;;;;;;4991247;28;20045;-53
2020/12/03 07:48:10;;;;;;;18.90;7.00;;;;;;;;;;4971596;28;20054;-57
2020/12/03 07:50:44;;;;;;;21.35;8.88;;;;;;;;;;4990150;28;20034;-58
2020/12/03 07:53:19;;;;;;;18.73;7.57;;;;;;;;;;5002763;28;20058;-61
2020/12/03 07:55:45;;;;;;;17.90;6.72;;;;;;;;;;4987254;28;20064;-60
2020/12/03 07:58:26;;;;;;;18.17;5.93;;;;;;;;;;5001965;28;20053;-56
2020/12/03 08:00:52;;;;;;;16.65;7.20;;;;;;;;;;4987540;28;20049;-58
2020/12/03 08:03:37;;;;;;;22.42;9.43;;;;;;;;;;4982327;28;20049;-58
2020/12/03 08:06:10;;;;;;;18.02;7.00;;;;;;;;;;4979798;28;20043;-59
2020/12/03 08:08:38;;;;;;;23.33;10.25;;;;;;;;;;4981524;28;20124;-59
2020/12/03 08:11:04;;;;;;;22.27;8.48;;;;;;;;;;4993835;28;20042;-61
2020/12/03 08:13:31;;;;;;;21.35;8.65;;;;;;;;;;4995832;28;20045;-59
2020/12/03 08:15:58;;;;;;;21.90;7.93;;;;;;;;;;4994025;28;20044;-59
2020/12/03 08:18:44;;;;;;;23.58;7.35;;;;;;;;;;5017153;28;20097;-57
2020/12/03 08:21:12;;;;;;;17.45;7.70;;;;;;;;;;5005691;28;20038;-57
2020/12/03 08:23:39;;;;;;;19.63;7.07;;;;;;;;;;4993888;28;20062;-56
2020/12/03 08:26:05;;;;;;;21.77;7.00;;;;;;;;;;4981363;28;20045;-59
2020/12/03 08:28:32;;;;;;;20.95;6.10;;;;;;;;;;4982146;28;20117;-58
2020/12/03 08:30:58;;;;;;;15.52;7.28;;;;;;;;;;4985151;28;20034;-56
2020/12/03 08:33:29;;;;;;;20.85;7.97;;;;;;;;;;5003313;28;20042;-57
2020/12/03 08:35:56;;;;;;;17.67;7.93;;;;;;;;;;4997583;28;20053;-58
2020/12/03 08:38:24;;;;;;;16.13;6.95;;;;;;;;;;5000608;28;20056;-58
2020/12/03 08:40:52;;;;;;;19.40;7.15;;;;;;;;;;4999158;28;20053;-60
2020/12/03 08:43:18;;;;;;;18.80;7.18;;;;;;;;;;5020135;28;20089;-58
2020/12/03 08:45:55;;;;;;;16.85;6.57;;;;;;;;;;5020357;28;20116;-57
2020/12/03 08:48:23;;;;;;;13.40;4.68;;;;;;;;;;4996847;28;20058;-59
2020/12/03 08:51:01;;;;;;;16.52;5.95;;;;;;;;;;4998395;28;20047;-59
2020/12/03 08:53:28;;;;;;;16.20;6.07;;;;;;;;;;4995357;28;20092;-58
2020/12/03 08:55:55;;;;;;;18.05;7.30;;;;;;;;;;5015807;28;20046;-60
2020/12/03 08:58:23;;;;;;;19.55;8.55;;;;;;;;;;4977081;28;20100;-57
2020/12/03 09:00:52;;;;;;;19.73;7.13;;;;;;;;;;4981502;28;20085;-57
2020/12/03 09:03:21;;;;;;;18.42;5.65;;;;;;;;;;4991307;28;20120;-59
2020/12/03 09:05:49;;;;;;;13.93;4.97;;;;;;;;;;4990725;28;20027;-60
2020/12/03 09:08:20;;;;;;;15.50;5.97;;;;;;;;;;4996998;28;20049;-54
2020/12/03 09:10:51;;;;;;;15.98;5.43;;;;;;;;;;4984373;28;20082;-56
2020/12/03 09:13:18;;;;;;;18.88;5.60;;;;;;;;;;4989604;28;20053;-58
2020/12/03 09:15:45;;;;;;;17.88;5.78;;;;;;;;;;5001237;28;20050;-57
2020/12/03 09:18:12;;;;;;;15.10;5.72;;;;;;;;;;4987484;28;20054;-58
2020/12/03 09:20:41;;;;;;;21.25;6.75;;;;;;;;;;4981225;28;20039;-60
2020/12/03 09:23:12;;;;;;;19.75;6.55;;;;;;;;;;4983474;28;20045;-60
2020/12/03 09:25:39;;;;;;;15.15;5.70;;;;;;;;;;5001069;28;20048;-60
2020/12/03 09:28:05;;;;;;;15.75;5.22;;;;;;;;;;4992312;28;20093;-62
2020/12/03 09:30:35;;;;;;;12.20;4.32;;;;;;;;;;4962524;28;20034;-57
2020/12/03 09:33:04;;;;;;;13.10;5.25;;;;;;;;;;4972054;28;20055;-60
2020/12/03 09:35:31;;;;;;;11.63;4.40;;;;;;;;;;4984088;28;20043;-57
2020/12/03 09:38:02;;;;;;;13.63;5.45;;;;;;;;;;4980953;28;20035;-57
2020/12/03 09:40:29;;;;;;;19.67;6.13;;;;;;;;;;4983521;28;20050;-57
2020/12/03 09:42:56;;;;;;;15.57;6.28;;;;;;;;;;5019375;28;20037;-60
2020/12/03 09:45:24;;;;;;;16.85;5.70;;;;;;;;;;4990301;28;20050;-58
2020/12/03 09:47:51;;;;;;;13.47;4.50;;;;;;;;;;5003599;28;20100;-54
2020/12/03 09:50:20;;;;;;;16.35;5.18;;;;;;;;;;4993122;28;20049;-57
2020/12/03 09:52:47;;;;;;;15.15;5.15;;;;;;;;;;5002446;28;20082;-57
2020/12/03 09:55:14;;;;;;;12.30;5.35;;;;;;;;;;4985123;28;20046;-55
2020/12/03 09:57:45;;;;;;;19.15;5.97;;;;;;;;;;4989308;28;20042;-58
2020/12/03 10:00:15;;;;;;;20.08;5.43;;;;;;;;;;4989152;28;20031;-58
2020/12/03 10:03:02;;;;;;;15.73;5.80;;;;;;;;;;4986651;28;20053;-59
2020/12/03 10:05:39;;;;;;;13.82;5.47;;;;;;;;;;4982956;28;20120;-59
2020/12/03 10:08:15;;;;;;;15.90;5.50;;;;;;;;;;5003565;28;20042;-54
2020/12/03 10:10:45;;;;;;;16.33;5.22;;;;;;;;;;4997536;28;20029;-60
2020/12/03 10:13:17;;;;;;;16.33;5.18;;;;;;;;;;5003941;28;20038;-61
2020/12/03 10:16:03;;;;;;;14.93;5.32;;;;;;;;;;5005983;28;20065;-62
2020/12/03 10:18:38;;;;;;;19.05;6.03;;;;;;;;;;4986825;28;20057;-62
2020/12/03 10:21:05;;;;;;;17.70;5.53;;;;;;;;;;4995617;28;20049;-58
2020/12/03 10:23:39;;;;;;;15.23;6.05;;;;;;;;;;5004782;28;20042;-61
2020/12/03 10:26:13;;;;;;;19.23;5.45;;;;;;;;;;5007846;28;20078;-61
2020/12/03 10:28:40;;;;;;;21.05;5.93;;;;;;;;;;4986953;28;20074;-61
2020/12/03 10:31:09;;;;;;;14.68;5.65;;;;;;;;;;4983190;28;20050;-58
2020/12/03 10:33:36;;;;;;;15.70;5.82;;;;;;;;;;4985250;28;20050;-58
2020/12/03 10:36:08;;;;;;;20.13;5.93;;;;;;;;;;5000892;28;20049;-58
2020/12/03 10:38:38;;;;;;;17.98;6.28;;;;;;;;;;4985706;28;20046;-61
2020/12/03 10:41:06;;;;;;;17.45;5.50;;;;;;;;;;4988750;28;20083;-58
2020/12/03 10:43:34;;;;;;;18.27;6.15;;;;;;;;;;5024713;28;20037;-61
2020/12/03 10:46:03;;;;;;;23.90;6.22;;;;;;;;;;5012520;28;20069;-61
2020/12/03 10:48:32;;;;;;;22.17;6.57;;;;;;;;;;4979203;28;20035;-58
2020/12/03 10:50:59;;;;;;;21.15;6.43;;;;;;;;;;4982769;28;20807;-57
2020/12/03 10:53:28;;;;;;;14.93;5.63;;;;;;;;;;4986556;28;20042;-60
2020/12/03 10:55:58;;;;;;;19.73;5.78;;;;;;;;;;4983690;28;20052;-57
2020/12/03 10:58:29;;;;;;;18.48;5.95;;;;;;;;;;5002786;28;20050;-60
2020/12/03 11:01:00;;;;;;;17.48;6.22;;;;;;;;;;5001909;28;20030;-59
2020/12/03 11:03:28;;;;;;;18.98;6.68;;;;;;;;;;5001419;28;20057;-58
2020/12/03 11:05:56;;;;;;;25.45;7.35;;;;;;;;;;4985678;28;20074;-55
2020/12/03 11:08:23;;;;;;;23.23;7.90;;;;;;;;;;4981099;28;20062;-58
2020/12/03 11:10:53;;;;;;;21.20;6.03;;;;;;;;;;4985375;28;20038;-59
2020/12/03 11:13:20;;;;;;;21.15;8.50;;;;;;;;;;4993168;28;20123;-58
2020/12/03 11:15:47;;;;;;;20.15;6.85;;;;;;;;;;5019439;28;20074;-53
2020/12/03 11:18:18;;;;;;;18.23;6.25;;;;;;;;;;5002893;28;20049;-57
2020/12/03 11:20:44;;;;;;;22.10;7.45;;;;;;;;;;5003445;28;20045;-53
2020/12/03 11:23:20;;;;;;;22.30;7.28;;;;;;;;;;4991771;28;20116;-56
2020/12/03 11:25:47;;;;;;;20.08;6.43;;;;;;;;;;4984376;28;20100;-57
2020/12/03 11:28:28;;;;;;;14.48;5.55;;;;;;;;;;4992241;28;20041;-59
2020/12/03 11:31:02;;;;;;;19.38;6.75;;;;;;;;;;5004164;28;20046;-60
2020/12/03 11:33:28;;;;;;;23.00;7.75;;;;;;;;;;5002485;28;20065;-60
2020/12/03 11:36:01;;;;;;;22.20;6.32;;;;;;;;;;5004670;28;20056;-58
2020/12/03 11:38:31;;;;;;;17.40;6.35;;;;;;;;;;5021761;28;20119;-57
2020/12/03 11:40:59;;;;;;;14.95;5.57;;;;;;;;;;5020927;28;20041;-56
2020/12/03 11:43:38;;;;;;;17.03;6.67;;;;;;;;;;5001442;28;20043;-61
2020/12/03 11:46:27;;;;;;;;;;;;;;;;;;5021973;28;20319;-57
2020/12/03 11:48:53;;;;;;;15.07;5.63;;;;;;;;;;4994127;28;19957;-58
2020/12/03 11:51:26;;;;;;;16.17;6.35;;;;;;;;;;4983352;28;20046;-57
2020/12/03 11:53:56;;;;;;;13.10;4.03;;;;;;;;;;4993913;28;20065;-56
2020/12/03 11:56:22;;;;;;;12.65;5.28;;;;;;;;;;5001781;28;20169;-60
2020/12/03 11:58:48;;;;;;;21.77;6.78;;;;;;;;;;4985623;28;20051;-61
2020/12/03 12:01:17;;;;;;;20.17;7.65;;;;;;;;;;5020908;28;20037;-59
2020/12/03 12:03:44;;;;;;;15.95;6.50;;;;;;;;;;4995860;28;20061;-60
2020/12/03 12:06:17;;;;;;;15.23;6.63;;;;;;;;;;4981586;28;20034;-59
2020/12/03 12:08:49;;;;;;;15.32;6.13;;;;;;;;;;4978001;28;20046;-59
2020/12/03 12:11:20;;;;;;;13.32;5.43;;;;;;;;;;4981580;28;20045;-58
2020/12/03 12:13:46;;;;;;;14.70;4.93;;;;;;;;;;4980412;28;20097;-57
2020/12/03 12:16:12;;;;;;;17.83;6.35;;;;;;;;;;4997124;28;20074;-60
2020/12/03 12:18:38;;;;;;;19.55;6.72;;;;;;;;;;5001153;28;20038;-60
2020/12/03 12:21:06;;;;;;;14.40;5.30;;;;;;;;;;4982597;28;20057;-60
2020/12/03 12:23:32;;;;;;;15.73;5.50;;;;;;;;;;4982243;28;20053;-62
2020/12/03 12:25:58;;;;;;;12.88;5.00;;;;;;;;;;4977946;28;20042;-60
2020/12/03 12:28:25;;;;;;;12.35;5.00;;;;;;;;;;4982026;28;20039;-56
2020/12/03 12:30:52;;;;;;;12.35;4.97;;;;;;;;;;4978488;28;20038;-59
2020/12/03 12:33:20;;;;;;;13.57;5.28;;;;;;;;;;4971532;28;20042;-55
2020/12/03 12:35:47;;;;;;;11.88;4.45;;;;;;;;;;4976777;28;20034;-59
2020/12/03 12:38:14;;;;;;;13.15;4.32;;;;;;;;;;4979665;28;20055;-57
2020/12/03 12:40:40;;;;;;;12.35;4.60;;;;;;;;;;4969542;28;20031;-55
2020/12/03 12:43:06;;;;;;;18.80;5.35;;;;;;;;;;5019191;28;20038;-55
2020/12/03 12:45:33;;;;;;;9.18;3.70;;;;;;;;;;5012693;28;20046;-58
2020/12/03 12:47:59;;;;;;;11.23;4.40;;;;;;;;;;5001353;28;20078;-57
2020/12/03 12:50:26;;;;;;;9.40;4.00;;;;;;;;;;4989434;28;20038;-58
2020/12/03 12:52:52;;;;;;;12.95;4.82;;;;;;;;;;4997370;28;20046;-56
2020/12/03 12:55:18;;;;;;;11.45;3.80;;;;;;;;;;4982198;28;20134;-56
2020/12/03 12:57:44;;;;;;;12.38;3.88;;;;;;;;;;4993226;28;20058;-61
2020/12/03 13:00:10;;;;;;;11.70;4.05;;;;;;;;;;5001353;28;20086;-62
2020/12/03 13:02:37;;;;;;;16.25;3.97;;;;;;;;;;4998100;28;20030;-60
2020/12/03 13:05:03;;;;;;;10.65;4.05;;;;;;;;;;5005825;28;20061;-60
2020/12/03 13:07:30;;;;;;;9.95;4.18;;;;;;;;;;5002658;28;20069;-60
2020/12/03 13:09:56;;;;;;;11.30;4.40;;;;;;;;;;4995731;28;20050;-61
2020/12/03 13:12:22;;;;;;;9.82;3.20;;;;;;;;;;4993245;28;20085;-61
2020/12/03 13:14:48;;;;;;;10.70;4.45;;;;;;;;;;5005165;28;20057;-55
2020/12/03 13:17:14;;;;;;;8.73;3.63;;;;;;;;;;4986764;28;20049;-56
2020/12/03 13:19:41;;;;;;;9.23;3.72;;;;;;;;;;4977504;28;20038;-59
2020/12/03 13:22:07;;;;;;;7.28;3.38;;;;;;;;;;4983710;28;20057;-59
2020/12/03 13:24:33;;;;;;;8.75;3.83;;;;;;;;;;5004473;28;20053;-59
2020/12/03 13:26:59;;;;;;;8.00;3.20;;;;;;;;;;5018360;28;20054;-58
2020/12/03 13:29:25;;;;;;;12.85;3.33;;;;;;;;;;5005421;28;20054;-61
2020/12/03 13:31:52;;;;;;;7.65;2.83;;;;;;;;;;5006539;28;20033;-60
2020/12/03 13:34:18;;;;;;;9.73;3.50;;;;;;;;;;5000021;28;20062;-60
2020/12/03 13:36:45;;;;;;;9.18;3.28;;;;;;;;;;4986923;28;20062;-57
2020/12/03 13:39:11;;;;;;;7.85;3.47;;;;;;;;;;4983867;28;20052;-59
2020/12/03 13:41:37;;;;;;;8.25;3.40;;;;;;;;;;4993321;28;20053;-57
2020/12/03 13:44:03;;;;;;;7.85;3.15;;;;;;;;;;4990132;28;20042;-61
2020/12/03 13:46:29;;;;;;;8.85;2.90;;;;;;;;;;4987779;28;20065;-59
2020/12/03 13:48:55;;;;;;;6.00;2.50;;;;;;;;;;4994596;28;20068;-57
2020/12/03 13:51:23;;;;;;;7.70;2.80;;;;;;;;;;5023792;28;20112;-61
2020/12/03 13:53:50;;;;;;;8.23;3.15;;;;;;;;;;5019129;28;20054;-56
2020/12/03 13:56:18;;;;;;;12.20;2.58;;;;;;;;;;5024731;28;20068;-59
2020/12/03 13:58:44;;;;;;;5.93;2.72;;;;;;;;;;5003139;28;20058;-59
2020/12/03 14:01:10;;;;;;;7.25;2.33;;;;;;;;;;5004890;28;20052;-61
2020/12/03 14:03:37;;;;;;;6.40;2.72;;;;;;;;;;5000897;28;20133;-59
2020/12/03 14:06:03;;;;;;;8.30;3.03;;;;;;;;;;4986751;28;20101;-56
2020/12/03 14:08:29;;;;;;;7.28;2.50;;;;;;;;;;4975504;28;20100;-57
2020/12/03 14:10:56;;;;;;;6.28;2.63;;;;;;;;;;5003406;28;20041;-58
2020/12/03 14:13:22;;;;;;;7.93;2.75;;;;;;;;;;5005764;28;20066;-58
2020/12/03 14:15:49;;;;;;;7.45;3.10;;;;;;;;;;5019966;28;20042;-58
2020/12/03 14:18:15;;;;;;;6.63;2.60;;;;;;;;;;5025069;28;20038;-55
2020/12/03 14:20:44;;;;;;;6.60;2.38;;;;;;;;;;4989857;28;20042;-58
2020/12/03 14:23:10;;;;;;;6.53;2.35;;;;;;;;;;4988433;28;20042;-61
2020/12/03 14:25:36;;;;;;;9.90;2.50;;;;;;;;;;5013610;28;20045;-59
2020/12/03 14:28:03;;;;;;;5.53;2.15;;;;;;;;;;5023984;28;20057;-61
2020/12/03 14:30:30;;;;;;;6.18;2.25;;;;;;;;;;4992938;28;20050;-58
2020/12/03 14:32:56;;;;;;;7.30;2.28;;;;;;;;;;4986781;28;20038;-60
2020/12/03 14:35:22;;;;;;;5.57;2.00;;;;;;;;;;4984015;28;20042;-60
2020/12/03 14:37:48;;;;;;;5.38;2.25;;;;;;;;;;4970043;28;20102;-54
2020/12/03 14:40:15;;;;;;;5.38;2.35;;;;;;;;;;4983866;28;20112;-58
2020/12/03 14:42:42;;;;;;;4.70;2.10;;;;;;;;;;5018410;28;20048;-58